sensor_id;sensor_type;location;lat;lon;timestamp;temperature;humidity
67942;SHT31;54731;42.600;23.476;2023-06-26T00:00:53;19.04;79.20
67942;SHT31;54731;42.600;23.476;2023-06-26T00:03:18;18.97;79.51
67942;SHT31;54731;42.600;23.476;2023-06-26T00:05:43;18.97;79.41
67942;SHT31;54731;42.600;23.476;2023-06-26T00:08:08;18.99;79.50
67942;SHT31;54731;42.600;23.476;2023-06-26T00:10:34;19.00;79.38
67942;SHT31;54731;42.600;23.476;2023-06-26T00:12:59;18.97;79.43
67942;SHT31;54731;42.600;23.476;2023-06-26T00:15:24;18.89;79.86
67942;SHT31;54731;42.600;23.476;2023-06-26T00:17:50;18.89;79.91
67942;SHT31;54731;42.600;23.476;2023-06-26T00:20:15;18.87;79.85
67942;SHT31;54731;42.600;23.476;2023-06-26T00:22:40;18.87;79.80
67942;SHT31;54731;42.600;23.476;2023-06-26T00:25:06;18.89;79.89
67942;SHT31;54731;42.600;23.476;2023-06-26T00:27:31;18.89;79.95
67942;SHT31;54731;42.600;23.476;2023-06-26T00:29:57;18.90;79.97
67942;SHT31;54731;42.600;23.476;2023-06-26T00:32:22;18.92;79.76
67942;SHT31;54731;42.600;23.476;2023-06-26T00:34:47;18.86;80.08
67942;SHT31;54731;42.600;23.476;2023-06-26T00:37:13;18.83;80.18
67942;SHT31;54731;42.600;23.476;2023-06-26T00:39:38;18.74;80.29
67942;SHT31;54731;42.600;23.476;2023-06-26T00:42:03;18.79;80.29
67942;SHT31;54731;42.600;23.476;2023-06-26T00:44:29;18.72;80.39
67942;SHT31;54731;42.600;23.476;2023-06-26T00:46:54;18.72;80.47
67942;SHT31;54731;42.600;23.476;2023-06-26T00:49:19;18.73;80.43
67942;SHT31;54731;42.600;23.476;2023-06-26T00:51:45;18.70;80.56
67942;SHT31;54731;42.600;23.476;2023-06-26T00:54:10;18.76;80.44
67942;SHT31;54731;42.600;23.476;2023-06-26T00:56:36;18.77;80.34
67942;SHT31;54731;42.600;23.476;2023-06-26T00:59:02;18.73;80.48
67942;SHT31;54731;42.600;23.476;2023-06-26T01:01:27;18.70;80.62
67942;SHT31;54731;42.600;23.476;2023-06-26T01:03:53;18.64;80.56
67942;SHT31;54731;42.600;23.476;2023-06-26T01:06:21;18.70;80.57
67942;SHT31;54731;42.600;23.476;2023-06-26T01:08:47;18.63;80.48
67942;SHT31;54731;42.600;23.476;2023-06-26T01:11:13;18.64;80.51
67942;SHT31;54731;42.600;23.476;2023-06-26T01:13:40;18.63;80.42
67942;SHT31;54731;42.600;23.476;2023-06-26T01:16:06;18.66;80.31
67942;SHT31;54731;42.600;23.476;2023-06-26T01:18:32;18.64;80.32
67942;SHT31;54731;42.600;23.476;2023-06-26T01:20:59;18.59;80.34
67942;SHT31;54731;42.600;23.476;2023-06-26T01:23:38;18.57;80.63
67942;SHT31;54731;42.600;23.476;2023-06-26T01:28:43;18.57;80.35
67942;SHT31;54731;42.600;23.476;2023-06-26T01:31:10;18.59;80.41
67942;SHT31;54731;42.600;23.476;2023-06-26T01:33:36;18.56;80.46
67942;SHT31;54731;42.600;23.476;2023-06-26T01:36:02;18.59;80.39
67942;SHT31;54731;42.600;23.476;2023-06-26T01:38:27;18.52;80.55
67942;SHT31;54731;42.600;23.476;2023-06-26T01:40:53;18.52;80.63
67942;SHT31;54731;42.600;23.476;2023-06-26T01:46:18;18.46;80.69
67942;SHT31;54731;42.600;23.476;2023-06-26T01:49:29;18.43;80.74
67942;SHT31;54731;42.600;23.476;2023-06-26T01:52:21;18.36;81.02
67942;SHT31;54731;42.600;23.476;2023-06-26T01:57:52;18.38;80.84
67942;SHT31;54731;42.600;23.476;2023-06-26T02:00:19;18.38;81.02
67942;SHT31;54731;42.600;23.476;2023-06-26T02:02:45;18.38;81.08
67942;SHT31;54731;42.600;23.476;2023-06-26T02:05:12;18.35;81.13
67942;SHT31;54731;42.600;23.476;2023-06-26T02:07:37;18.39;81.15
67942;SHT31;54731;42.600;23.476;2023-06-26T02:10:03;18.39;81.18
67942;SHT31;54731;42.600;23.476;2023-06-26T02:12:28;18.36;81.19
67942;SHT31;54731;42.600;23.476;2023-06-26T02:14:54;18.33;81.04
67942;SHT31;54731;42.600;23.476;2023-06-26T02:17:19;18.28;81.29
67942;SHT31;54731;42.600;23.476;2023-06-26T02:19:44;18.29;81.13
67942;SHT31;54731;42.600;23.476;2023-06-26T02:22:09;18.31;81.03
67942;SHT31;54731;42.600;23.476;2023-06-26T02:24:35;18.28;80.86
67942;SHT31;54731;42.600;23.476;2023-06-26T02:27:00;18.18;81.18
67942;SHT31;54731;42.600;23.476;2023-06-26T02:29:25;18.21;81.04
67942;SHT31;54731;42.600;23.476;2023-06-26T02:31:51;18.16;81.09
67942;SHT31;54731;42.600;23.476;2023-06-26T02:34:16;18.15;80.98
67942;SHT31;54731;42.600;23.476;2023-06-26T02:36:41;18.16;80.67
67942;SHT31;54731;42.600;23.476;2023-06-26T02:39:06;18.16;80.63
67942;SHT31;54731;42.600;23.476;2023-06-26T02:41:32;18.18;80.50
67942;SHT31;54731;42.600;23.476;2023-06-26T02:43:57;18.16;80.55
67942;SHT31;54731;42.600;23.476;2023-06-26T02:46:22;18.15;80.43
67942;SHT31;54731;42.600;23.476;2023-06-26T02:48:48;18.06;80.60
67942;SHT31;54731;42.600;23.476;2023-06-26T02:51:13;18.11;80.72
67942;SHT31;54731;42.600;23.476;2023-06-26T02:53:38;18.13;80.61
67942;SHT31;54731;42.600;23.476;2023-06-26T02:56:04;18.19;80.55
67942;SHT31;54731;42.600;23.476;2023-06-26T02:58:29;18.13;80.62
67942;SHT31;54731;42.600;23.476;2023-06-26T03:00:54;18.15;80.71
67942;SHT31;54731;42.600;23.476;2023-06-26T03:03:20;18.11;80.92
67942;SHT31;54731;42.600;23.476;2023-06-26T03:05:45;18.08;81.02
67942;SHT31;54731;42.600;23.476;2023-06-26T03:08:11;18.11;81.09
67942;SHT31;54731;42.600;23.476;2023-06-26T03:10:36;18.11;81.05
67942;SHT31;54731;42.600;23.476;2023-06-26T03:13:01;18.15;80.82
67942;SHT31;54731;42.600;23.476;2023-06-26T03:15:27;18.09;80.95
67942;SHT31;54731;42.600;23.476;2023-06-26T03:17:52;18.13;80.77
67942;SHT31;54731;42.600;23.476;2023-06-26T03:20:17;18.09;80.70
67942;SHT31;54731;42.600;23.476;2023-06-26T03:22:42;18.06;80.83
67942;SHT31;54731;42.600;23.476;2023-06-26T03:25:08;18.08;80.71
67942;SHT31;54731;42.600;23.476;2023-06-26T03:27:33;18.06;80.65
67942;SHT31;54731;42.600;23.476;2023-06-26T03:29:58;18.12;80.60
67942;SHT31;54731;42.600;23.476;2023-06-26T03:32:24;18.12;80.35
67942;SHT31;54731;42.600;23.476;2023-06-26T03:34:49;18.09;80.36
67942;SHT31;54731;42.600;23.476;2023-06-26T03:37:14;18.11;80.19
67942;SHT31;54731;42.600;23.476;2023-06-26T03:39:40;18.19;79.87
67942;SHT31;54731;42.600;23.476;2023-06-26T03:42:06;18.19;80.02
67942;SHT31;54731;42.600;23.476;2023-06-26T03:44:31;18.24;79.33
67942;SHT31;54731;42.600;23.476;2023-06-26T03:46:56;18.25;79.55
67942;SHT31;54731;42.600;23.476;2023-06-26T03:49:22;18.29;79.14
67942;SHT31;54731;42.600;23.476;2023-06-26T03:51:47;18.29;79.17
67942;SHT31;54731;42.600;23.476;2023-06-26T03:54:12;18.32;79.17
67942;SHT31;54731;42.600;23.476;2023-06-26T03:56:38;18.32;79.10
67942;SHT31;54731;42.600;23.476;2023-06-26T03:59:03;18.38;79.06
67942;SHT31;54731;42.600;23.476;2023-06-26T04:01:29;18.42;78.88
67942;SHT31;54731;42.600;23.476;2023-06-26T04:03:54;18.43;78.78
67942;SHT31;54731;42.600;23.476;2023-06-26T04:06:19;18.38;78.98
67942;SHT31;54731;42.600;23.476;2023-06-26T04:08:45;18.33;79.38
67942;SHT31;54731;42.600;23.476;2023-06-26T04:11:10;18.33;79.21
67942;SHT31;54731;42.600;23.476;2023-06-26T04:13:36;18.33;79.27
67942;SHT31;54731;42.600;23.476;2023-06-26T04:16:01;18.35;79.08
67942;SHT31;54731;42.600;23.476;2023-06-26T04:18:26;18.36;79.11
67942;SHT31;54731;42.600;23.476;2023-06-26T04:21:12;18.32;79.15
67942;SHT31;54731;42.600;23.476;2023-06-26T04:23:39;18.36;79.11
67942;SHT31;54731;42.600;23.476;2023-06-26T04:26:05;18.41;79.19
67942;SHT31;54731;42.600;23.476;2023-06-26T04:28:34;18.46;78.94
67942;SHT31;54731;42.600;23.476;2023-06-26T04:31:00;18.42;79.02
67942;SHT31;54731;42.600;23.476;2023-06-26T04:33:26;18.39;79.10
67942;SHT31;54731;42.600;23.476;2023-06-26T04:35:52;18.41;78.95
67942;SHT31;54731;42.600;23.476;2023-06-26T04:38:19;18.39;79.04
67942;SHT31;54731;42.600;23.476;2023-06-26T04:40:44;18.41;79.30
67942;SHT31;54731;42.600;23.476;2023-06-26T04:43:09;18.45;79.41
67942;SHT31;54731;42.600;23.476;2023-06-26T04:45:35;18.48;79.25
67942;SHT31;54731;42.600;23.476;2023-06-26T04:48:00;18.46;79.17
67942;SHT31;54731;42.600;23.476;2023-06-26T04:50:26;18.48;79.30
67942;SHT31;54731;42.600;23.476;2023-06-26T04:52:51;18.53;79.17
67942;SHT31;54731;42.600;23.476;2023-06-26T04:55:17;18.60;79.12
67942;SHT31;54731;42.600;23.476;2023-06-26T04:57:42;18.56;78.99
67942;SHT31;54731;42.600;23.476;2023-06-26T05:00:08;18.59;79.05
67942;SHT31;54731;42.600;23.476;2023-06-26T05:02:33;18.67;78.89
67942;SHT31;54731;42.600;23.476;2023-06-26T05:04:58;18.66;78.61
67942;SHT31;54731;42.600;23.476;2023-06-26T05:07:23;18.59;78.55
67942;SHT31;54731;42.600;23.476;2023-06-26T05:09:49;18.72;78.45
67942;SHT31;54731;42.600;23.476;2023-06-26T05:12:14;18.66;78.11
67942;SHT31;54731;42.600;23.476;2023-06-26T05:14:39;18.64;78.37
67942;SHT31;54731;42.600;23.476;2023-06-26T05:17:05;18.63;78.30
67942;SHT31;54731;42.600;23.476;2023-06-26T05:19:30;18.60;78.22
67942;SHT31;54731;42.600;23.476;2023-06-26T05:21:56;18.63;78.39
67942;SHT31;54731;42.600;23.476;2023-06-26T05:24:22;18.62;78.60
67942;SHT31;54731;42.600;23.476;2023-06-26T05:26:48;18.67;78.84
67942;SHT31;54731;42.600;23.476;2023-06-26T05:29:14;18.73;78.48
67942;SHT31;54731;42.600;23.476;2023-06-26T05:31:41;18.73;78.43
67942;SHT31;54731;42.600;23.476;2023-06-26T05:34:07;18.74;78.66
67942;SHT31;54731;42.600;23.476;2023-06-26T05:36:35;18.79;78.72
67942;SHT31;54731;42.600;23.476;2023-06-26T05:39:01;18.82;78.52
67942;SHT31;54731;42.600;23.476;2023-06-26T05:41:27;18.86;78.57
67942;SHT31;54731;42.600;23.476;2023-06-26T05:43:52;18.84;78.43
67942;SHT31;54731;42.600;23.476;2023-06-26T05:46:17;18.86;78.86
67942;SHT31;54731;42.600;23.476;2023-06-26T05:48:43;18.89;78.88
67942;SHT31;54731;42.600;23.476;2023-06-26T05:51:08;18.97;78.63
67942;SHT31;54731;42.600;23.476;2023-06-26T05:53:34;19.00;78.40
67942;SHT31;54731;42.600;23.476;2023-06-26T05:56:00;19.02;78.63
67942;SHT31;54731;42.600;23.476;2023-06-26T05:58:26;19.08;78.78
67942;SHT31;54731;42.600;23.476;2023-06-26T06:00:51;19.21;78.09
67942;SHT31;54731;42.600;23.476;2023-06-26T06:03:17;19.21;77.85
67942;SHT31;54731;42.600;23.476;2023-06-26T06:05:42;19.24;77.92
67942;SHT31;54731;42.600;23.476;2023-06-26T06:08:07;19.21;77.54
67942;SHT31;54731;42.600;23.476;2023-06-26T06:10:33;19.16;77.33
67942;SHT31;54731;42.600;23.476;2023-06-26T06:12:58;19.17;77.70
67942;SHT31;54731;42.600;23.476;2023-06-26T06:15:23;19.24;77.52
67942;SHT31;54731;42.600;23.476;2023-06-26T06:17:48;19.24;77.91
67942;SHT31;54731;42.600;23.476;2023-06-26T06:20:14;19.37;77.83
67942;SHT31;54731;42.600;23.476;2023-06-26T06:22:39;19.43;76.82
67942;SHT31;54731;42.600;23.476;2023-06-26T06:25:05;19.50;76.84
67942;SHT31;54731;42.600;23.476;2023-06-26T06:27:30;19.53;75.88
67942;SHT31;54731;42.600;23.476;2023-06-26T06:29:55;19.57;75.39
67942;SHT31;54731;42.600;23.476;2023-06-26T06:32:21;19.51;76.01
67942;SHT31;54731;42.600;23.476;2023-06-26T06:34:46;19.61;75.89
67942;SHT31;54731;42.600;23.476;2023-06-26T06:37:11;19.72;75.81
67942;SHT31;54731;42.600;23.476;2023-06-26T06:39:37;19.81;75.98
67942;SHT31;54731;42.600;23.476;2023-06-26T06:42:02;19.92;75.16
67942;SHT31;54731;42.600;23.476;2023-06-26T06:44:27;20.08;73.78
67942;SHT31;54731;42.600;23.476;2023-06-26T06:46:53;20.10;73.94
67942;SHT31;54731;42.600;23.476;2023-06-26T06:49:18;20.28;73.89
67942;SHT31;54731;42.600;23.476;2023-06-26T06:51:44;20.28;73.79
67942;SHT31;54731;42.600;23.476;2023-06-26T06:54:09;20.32;73.32
67942;SHT31;54731;42.600;23.476;2023-06-26T06:56:34;20.30;74.10
67942;SHT31;54731;42.600;23.476;2023-06-26T06:58:59;20.33;73.35
67942;SHT31;54731;42.600;23.476;2023-06-26T07:01:25;20.36;72.78
67942;SHT31;54731;42.600;23.476;2023-06-26T07:03:50;20.46;73.42
67942;SHT31;54731;42.600;23.476;2023-06-26T07:06:15;20.47;72.90
67942;SHT31;54731;42.600;23.476;2023-06-26T07:08:41;20.49;73.24
67942;SHT31;54731;42.600;23.476;2023-06-26T07:11:06;20.37;72.69
67942;SHT31;54731;42.600;23.476;2023-06-26T07:13:31;20.30;72.92
67942;SHT31;54731;42.600;23.476;2023-06-26T07:15:56;20.25;74.21
67942;SHT31;54731;42.600;23.476;2023-06-26T07:18:22;20.37;72.86
67942;SHT31;54731;42.600;23.476;2023-06-26T07:20:47;20.52;72.85
67942;SHT31;54731;42.600;23.476;2023-06-26T07:23:12;20.72;72.39
67942;SHT31;54731;42.600;23.476;2023-06-26T07:25:37;21.00;72.13
67942;SHT31;54731;42.600;23.476;2023-06-26T07:28:06;21.18;71.29
67942;SHT31;54731;42.600;23.476;2023-06-26T07:30:34;21.31;70.90
67942;SHT31;54731;42.600;23.476;2023-06-26T07:32:59;21.35;70.55
67942;SHT31;54731;42.600;23.476;2023-06-26T07:35:25;21.34;69.72
67942;SHT31;54731;42.600;23.476;2023-06-26T07:37:50;21.35;69.93
67942;SHT31;54731;42.600;23.476;2023-06-26T07:40:15;21.35;68.57
67942;SHT31;54731;42.600;23.476;2023-06-26T07:42:40;21.28;67.84
67942;SHT31;54731;42.600;23.476;2023-06-26T07:45:06;21.32;68.71
67942;SHT31;54731;42.600;23.476;2023-06-26T07:47:31;21.35;67.77
67942;SHT31;54731;42.600;23.476;2023-06-26T07:49:57;21.20;68.65
67942;SHT31;54731;42.600;23.476;2023-06-26T07:52:22;21.21;68.60
67942;SHT31;54731;42.600;23.476;2023-06-26T07:54:47;21.37;70.03
67942;SHT31;54731;42.600;23.476;2023-06-26T07:57:13;21.51;68.33
67942;SHT31;54731;42.600;23.476;2023-06-26T07:59:38;21.66;68.93
67942;SHT31;54731;42.600;23.476;2023-06-26T08:02:03;21.62;67.36
67942;SHT31;54731;42.600;23.476;2023-06-26T08:04:29;21.65;67.35
67942;SHT31;54731;42.600;23.476;2023-06-26T08:06:56;21.75;66.72
67942;SHT31;54731;42.600;23.476;2023-06-26T08:09:23;21.71;65.35
67942;SHT31;54731;42.600;23.476;2023-06-26T08:11:48;21.66;65.45
67942;SHT31;54731;42.600;23.476;2023-06-26T08:14:15;21.71;64.73
67942;SHT31;54731;42.600;23.476;2023-06-26T08:16:41;21.69;64.47
67942;SHT31;54731;42.600;23.476;2023-06-26T08:19:07;21.52;65.85
67942;SHT31;54731;42.600;23.476;2023-06-26T08:21:33;21.68;66.35
67942;SHT31;54731;42.600;23.476;2023-06-26T08:24:03;21.78;67.03
67942;SHT31;54731;42.600;23.476;2023-06-26T08:26:29;21.88;66.14
67942;SHT31;54731;42.600;23.476;2023-06-26T08:28:54;22.03;65.43
67942;SHT31;54731;42.600;23.476;2023-06-26T08:31:19;22.16;66.18
67942;SHT31;54731;42.600;23.476;2023-06-26T08:33:45;22.43;64.36
67942;SHT31;54731;42.600;23.476;2023-06-26T08:36:10;22.56;64.71
67942;SHT31;54731;42.600;23.476;2023-06-26T08:38:35;22.43;64.18
67942;SHT31;54731;42.600;23.476;2023-06-26T08:41:01;22.53;63.60
67942;SHT31;54731;42.600;23.476;2023-06-26T08:43:26;22.60;62.60
67942;SHT31;54731;42.600;23.476;2023-06-26T08:45:52;22.77;62.52
67942;SHT31;54731;42.600;23.476;2023-06-26T08:48:18;22.93;62.35
67942;SHT31;54731;42.600;23.476;2023-06-26T08:50:44;23.07;61.95
67942;SHT31;54731;42.600;23.476;2023-06-26T08:55:41;23.11;62.82
67942;SHT31;54731;42.600;23.476;2023-06-26T08:58:07;23.05;61.78
67942;SHT31;54731;42.600;23.476;2023-06-26T09:00:32;22.87;62.36
67942;SHT31;54731;42.600;23.476;2023-06-26T09:02:58;22.71;62.92
67942;SHT31;54731;42.600;23.476;2023-06-26T09:05:26;22.65;62.37
67942;SHT31;54731;42.600;23.476;2023-06-26T09:07:51;22.46;62.85
67942;SHT31;54731;42.600;23.476;2023-06-26T09:10:16;22.33;63.16
67942;SHT31;54731;42.600;23.476;2023-06-26T09:12:46;22.19;63.62
67942;SHT31;54731;42.600;23.476;2023-06-26T09:15:14;22.24;65.03
67942;SHT31;54731;42.600;23.476;2023-06-26T09:33:47;23.05;60.85
67942;SHT31;54731;42.600;23.476;2023-06-26T09:36:20;23.05;61.31
67942;SHT31;54731;42.600;23.476;2023-06-26T09:38:45;23.10;61.59
67942;SHT31;54731;42.600;23.476;2023-06-26T09:41:11;23.14;61.04
67942;SHT31;54731;42.600;23.476;2023-06-26T09:43:45;23.14;60.35
67942;SHT31;54731;42.600;23.476;2023-06-26T09:46:24;23.21;60.19
67942;SHT31;54731;42.600;23.476;2023-06-26T09:48:49;23.25;60.42
67942;SHT31;54731;42.600;23.476;2023-06-26T09:51:16;23.32;60.66
67942;SHT31;54731;42.600;23.476;2023-06-26T09:53:42;23.26;59.73
67942;SHT31;54731;42.600;23.476;2023-06-26T09:56:07;23.21;60.71
67942;SHT31;54731;42.600;23.476;2023-06-26T09:58:40;23.49;60.17
67942;SHT31;54731;42.600;23.476;2023-06-26T10:01:06;23.66;59.24
67942;SHT31;54731;42.600;23.476;2023-06-26T10:03:31;23.80;59.37
67942;SHT31;54731;42.600;23.476;2023-06-26T10:05:57;23.97;58.30
67942;SHT31;54731;42.600;23.476;2023-06-26T10:08:23;23.92;57.69
67942;SHT31;54731;42.600;23.476;2023-06-26T10:10:49;24.21;58.64
67942;SHT31;54731;42.600;23.476;2023-06-26T10:13:22;24.44;57.81
67942;SHT31;54731;42.600;23.476;2023-06-26T10:15:48;24.31;57.53
67942;SHT31;54731;42.600;23.476;2023-06-26T10:18:16;23.96;58.15
67942;SHT31;54731;42.600;23.476;2023-06-26T10:20:42;23.97;58.01
67942;SHT31;54731;42.600;23.476;2023-06-26T10:23:11;23.99;58.28
67942;SHT31;54731;42.600;23.476;2023-06-26T10:25:37;24.02;57.58
67942;SHT31;54731;42.600;23.476;2023-06-26T10:28:05;24.03;57.50
67942;SHT31;54731;42.600;23.476;2023-06-26T10:30:33;24.03;57.32
67942;SHT31;54731;42.600;23.476;2023-06-26T10:33:00;24.12;57.51
67942;SHT31;54731;42.600;23.476;2023-06-26T10:35:26;24.31;55.83
67942;SHT31;54731;42.600;23.476;2023-06-26T10:37:51;24.44;55.97
67942;SHT31;54731;42.600;23.476;2023-06-26T10:40:26;24.44;57.53
67942;SHT31;54731;42.600;23.476;2023-06-26T10:43:05;24.40;57.23
67942;SHT31;54731;42.600;23.476;2023-06-26T10:45:33;24.12;58.14
67942;SHT31;54731;42.600;23.476;2023-06-26T10:47:59;24.02;58.71
67942;SHT31;54731;42.600;23.476;2023-06-26T10:50:31;23.92;58.74
67942;SHT31;54731;42.600;23.476;2023-06-26T10:53:21;23.79;58.22
67942;SHT31;54731;42.600;23.476;2023-06-26T11:03:38;23.73;58.61
67942;SHT31;54731;42.600;23.476;2023-06-26T11:11:14;23.70;59.01
67942;SHT31;54731;42.600;23.476;2023-06-26T11:13:40;23.75;59.64
67942;SHT31;54731;42.600;23.476;2023-06-26T11:16:05;23.70;57.75
67942;SHT31;54731;42.600;23.476;2023-06-26T11:18:31;23.51;57.37
67942;SHT31;54731;42.600;23.476;2023-06-26T11:21:07;23.48;58.75
67942;SHT31;54731;42.600;23.476;2023-06-26T11:23:35;23.44;58.95
67942;SHT31;54731;42.600;23.476;2023-06-26T11:26:39;23.37;58.85
67942;SHT31;54731;42.600;23.476;2023-06-26T11:29:05;23.42;58.89
67942;SHT31;54731;42.600;23.476;2023-06-26T11:33:58;23.41;59.00
67942;SHT31;54731;42.600;23.476;2023-06-26T11:36:27;23.44;59.80
67942;SHT31;54731;42.600;23.476;2023-06-26T11:39:00;23.54;59.44
67942;SHT31;54731;42.600;23.476;2023-06-26T11:41:27;23.58;59.81
67942;SHT31;54731;42.600;23.476;2023-06-26T11:43:53;23.59;58.29
67942;SHT31;54731;42.600;23.476;2023-06-26T11:46:22;23.68;57.76
67942;SHT31;54731;42.600;23.476;2023-06-26T11:48:48;23.66;57.02
67942;SHT31;54731;42.600;23.476;2023-06-26T11:51:14;23.76;56.28
67942;SHT31;54731;42.600;23.476;2023-06-26T11:53:44;23.83;56.12
67942;SHT31;54731;42.600;23.476;2023-06-26T11:56:10;23.87;55.61
67942;SHT31;54731;42.600;23.476;2023-06-26T11:58:37;23.87;55.77
67942;SHT31;54731;42.600;23.476;2023-06-26T12:01:17;24.02;55.72
67942;SHT31;54731;42.600;23.476;2023-06-26T12:03:43;24.17;54.69
67942;SHT31;54731;42.600;23.476;2023-06-26T12:06:08;24.31;55.26
67942;SHT31;54731;42.600;23.476;2023-06-26T12:08:34;24.39;54.87
67942;SHT31;54731;42.600;23.476;2023-06-26T12:10:59;24.67;54.36
67942;SHT31;54731;42.600;23.476;2023-06-26T12:13:25;24.65;52.13
67942;SHT31;54731;42.600;23.476;2023-06-26T12:15:50;24.80;53.75
67942;SHT31;54731;42.600;23.476;2023-06-26T12:18:16;24.98;51.85
67942;SHT31;54731;42.600;23.476;2023-06-26T12:20:41;25.16;50.19
67942;SHT31;54731;42.600;23.476;2023-06-26T12:23:13;25.14;50.84
67942;SHT31;54731;42.600;23.476;2023-06-26T12:25:38;25.22;50.51
67942;SHT31;54731;42.600;23.476;2023-06-26T12:28:03;25.36;51.87
67942;SHT31;54731;42.600;23.476;2023-06-26T12:30:39;25.49;52.22
67942;SHT31;54731;42.600;23.476;2023-06-26T12:33:12;25.65;50.86
67942;SHT31;54731;42.600;23.476;2023-06-26T12:35:38;25.86;51.33
67942;SHT31;54731;42.600;23.476;2023-06-26T12:38:07;25.96;50.70
67942;SHT31;54731;42.600;23.476;2023-06-26T12:40:32;26.08;51.49
67942;SHT31;54731;42.600;23.476;2023-06-26T12:42:57;26.10;50.86
67942;SHT31;54731;42.600;23.476;2023-06-26T12:45:23;26.33;50.75
67942;SHT31;54731;42.600;23.476;2023-06-26T12:47:48;26.38;49.71
67942;SHT31;54731;42.600;23.476;2023-06-26T12:50:13;26.74;49.35
67942;SHT31;54731;42.600;23.476;2023-06-26T12:52:39;26.78;49.10
67942;SHT31;54731;42.600;23.476;2023-06-26T12:55:05;27.05;47.17
67942;SHT31;54731;42.600;23.476;2023-06-26T12:57:30;27.06;48.89
67942;SHT31;54731;42.600;23.476;2023-06-26T12:59:55;27.08;48.22
67942;SHT31;54731;42.600;23.476;2023-06-26T13:02:21;27.06;48.21
67942;SHT31;54731;42.600;23.476;2023-06-26T13:04:46;26.72;48.01
67942;SHT31;54731;42.600;23.476;2023-06-26T13:07:12;26.54;48.58
67942;SHT31;54731;42.600;23.476;2023-06-26T13:09:37;26.57;48.28
67942;SHT31;54731;42.600;23.476;2023-06-26T13:12:04;26.45;46.94
67942;SHT31;54731;42.600;23.476;2023-06-26T13:14:30;26.61;47.37
67942;SHT31;54731;42.600;23.476;2023-06-26T13:16:55;26.30;46.67
67942;SHT31;54731;42.600;23.476;2023-06-26T13:19:20;26.44;47.73
67942;SHT31;54731;42.600;23.476;2023-06-26T13:21:46;26.50;47.56
67942;SHT31;54731;42.600;23.476;2023-06-26T13:24:11;26.52;49.13
67942;SHT31;54731;42.600;23.476;2023-06-26T13:26:36;26.43;48.64
67942;SHT31;54731;42.600;23.476;2023-06-26T13:29:02;26.70;49.61
67942;SHT31;54731;42.600;23.476;2023-06-26T13:31:28;27.05;47.97
67942;SHT31;54731;42.600;23.476;2023-06-26T13:33:53;27.31;49.47
67942;SHT31;54731;42.600;23.476;2023-06-26T13:36:19;27.47;47.39
67942;SHT31;54731;42.600;23.476;2023-06-26T13:38:45;27.59;46.53
67942;SHT31;54731;42.600;23.476;2023-06-26T13:41:11;27.79;47.88
67942;SHT31;54731;42.600;23.476;2023-06-26T13:43:36;27.80;46.37
67942;SHT31;54731;42.600;23.476;2023-06-26T13:46:01;27.86;45.95
67942;SHT31;54731;42.600;23.476;2023-06-26T13:48:27;28.03;46.24
67942;SHT31;54731;42.600;23.476;2023-06-26T13:50:52;27.64;46.17
67942;SHT31;54731;42.600;23.476;2023-06-26T13:53:18;27.79;46.70
67942;SHT31;54731;42.600;23.476;2023-06-26T13:55:43;28.20;46.45
67942;SHT31;54731;42.600;23.476;2023-06-26T13:58:09;28.51;44.95
67942;SHT31;54731;42.600;23.476;2023-06-26T14:00:36;28.67;44.46
67942;SHT31;54731;42.600;23.476;2023-06-26T14:03:02;28.68;45.04
67942;SHT31;54731;42.600;23.476;2023-06-26T14:05:28;28.68;45.02
67942;SHT31;54731;42.600;23.476;2023-06-26T14:07:53;28.71;43.85
67942;SHT31;54731;42.600;23.476;2023-06-26T14:10:18;28.45;44.91
67942;SHT31;54731;42.600;23.476;2023-06-26T14:12:43;28.52;44.90
67942;SHT31;54731;42.600;23.476;2023-06-26T14:15:09;28.48;44.07
67942;SHT31;54731;42.600;23.476;2023-06-26T14:17:35;28.28;45.15
67942;SHT31;54731;42.600;23.476;2023-06-26T14:20:00;28.17;44.96
67942;SHT31;54731;42.600;23.476;2023-06-26T14:22:25;28.17;46.19
67942;SHT31;54731;42.600;23.476;2023-06-26T14:24:51;27.93;46.91
67942;SHT31;54731;42.600;23.476;2023-06-26T14:27:16;28.10;47.02
67942;SHT31;54731;42.600;23.476;2023-06-26T14:29:41;28.00;46.01
67942;SHT31;54731;42.600;23.476;2023-06-26T14:32:07;28.08;46.02
67942;SHT31;54731;42.600;23.476;2023-06-26T14:34:32;28.18;45.96
67942;SHT31;54731;42.600;23.476;2023-06-26T14:36:58;28.11;47.00
67942;SHT31;54731;42.600;23.476;2023-06-26T14:39:23;27.96;45.86
67942;SHT31;54731;42.600;23.476;2023-06-26T14:41:49;27.45;47.55
67942;SHT31;54731;42.600;23.476;2023-06-26T14:44:15;27.31;47.91
67942;SHT31;54731;42.600;23.476;2023-06-26T14:46:40;27.18;47.24
67942;SHT31;54731;42.600;23.476;2023-06-26T14:49:05;27.31;48.16
67942;SHT31;54731;42.600;23.476;2023-06-26T14:51:31;27.45;47.96
67942;SHT31;54731;42.600;23.476;2023-06-26T14:53:56;27.41;50.45
67942;SHT31;54731;42.600;23.476;2023-06-26T14:56:21;27.29;51.47
67942;SHT31;54731;42.600;23.476;2023-06-26T14:58:47;26.91;52.31
67942;SHT31;54731;42.600;23.476;2023-06-26T15:01:13;26.80;52.17
67942;SHT31;54731;42.600;23.476;2023-06-26T15:03:38;26.78;52.70
67942;SHT31;54731;42.600;23.476;2023-06-26T15:06:04;26.84;52.30
67942;SHT31;54731;42.600;23.476;2023-06-26T15:08:29;26.98;51.37
67942;SHT31;54731;42.600;23.476;2023-06-26T15:10:54;27.06;50.79
67942;SHT31;54731;42.600;23.476;2023-06-26T15:13:19;27.12;50.93
67942;SHT31;54731;42.600;23.476;2023-06-26T15:15:45;27.16;50.95
67942;SHT31;54731;42.600;23.476;2023-06-26T15:18:10;27.19;50.45
67942;SHT31;54731;42.600;23.476;2023-06-26T15:20:35;27.13;50.48
67942;SHT31;54731;42.600;23.476;2023-06-26T15:23:01;26.98;50.27
67942;SHT31;54731;42.600;23.476;2023-06-26T15:25:26;26.58;50.09
67942;SHT31;54731;42.600;23.476;2023-06-26T15:27:51;26.43;50.57
67942;SHT31;54731;42.600;23.476;2023-06-26T15:30:17;26.16;51.12
67942;SHT31;54731;42.600;23.476;2023-06-26T15:32:42;26.01;52.15
67942;SHT31;54731;42.600;23.476;2023-06-26T15:35:08;25.66;52.22
67942;SHT31;54731;42.600;23.476;2023-06-26T15:37:33;25.55;52.65
67942;SHT31;54731;42.600;23.476;2023-06-26T15:39:58;25.18;53.74
67942;SHT31;54731;42.600;23.476;2023-06-26T15:42:27;25.08;54.15
67942;SHT31;54731;42.600;23.476;2023-06-26T15:44:52;25.02;54.91
67942;SHT31;54731;42.600;23.476;2023-06-26T15:47:18;24.80;55.11
67942;SHT31;54731;42.600;23.476;2023-06-26T15:49:43;24.87;55.38
67942;SHT31;54731;42.600;23.476;2023-06-26T15:52:08;24.85;55.87